sensor_id;sensor_type;location;lat;lon;timestamp;P1;durP1;ratioP1;P2;durP2;ratioP2
33760;SDS011;20084;47.912;19.044;2024-01-30T00:01:50;22.80;;;13.02;;
33760;SDS011;20084;47.912;19.044;2024-01-30T00:04:15;27.90;;;16.42;;
33760;SDS011;20084;47.912;19.044;2024-01-30T00:06:42;29.95;;;16.63;;
33760;SDS011;20084;47.912;19.044;2024-01-30T00:09:08;28.67;;;16.67;;
33760;SDS011;20084;47.912;19.044;2024-01-30T00:11:35;28.33;;;16.65;;
33760;SDS011;20084;47.912;19.044;2024-01-30T00:14:01;29.00;;;17.00;;
33760;SDS011;20084;47.912;19.044;2024-01-30T00:16:26;28.13;;;15.73;;
33760;SDS011;20084;47.912;19.044;2024-01-30T00:18:53;30.27;;;16.60;;
33760;SDS011;20084;47.912;19.044;2024-01-30T00:21:19;31.98;;;16.67;;
33760;SDS011;20084;47.912;19.044;2024-01-30T00:23:45;34.20;;;18.10;;
33760;SDS011;20084;47.912;19.044;2024-01-30T00:26:11;27.92;;;16.83;;
33760;SDS011;20084;47.912;19.044;2024-01-30T00:28:37;25.92;;;14.93;;
33760;SDS011;20084;47.912;19.044;2024-01-30T00:31:03;28.40;;;15.93;;
33760;SDS011;20084;47.912;19.044;2024-01-30T00:33:29;31.98;;;16.83;;
33760;SDS011;20084;47.912;19.044;2024-01-30T00:35:54;33.88;;;18.00;;
33760;SDS011;20084;47.912;19.044;2024-01-30T00:38:20;29.40;;;16.25;;
33760;SDS011;20084;47.912;19.044;2024-01-30T00:40:46;29.90;;;15.75;;
33760;SDS011;20084;47.912;19.044;2024-01-30T00:43:11;30.02;;;16.75;;
33760;SDS011;20084;47.912;19.044;2024-01-30T00:45:37;32.58;;;16.00;;
33760;SDS011;20084;47.912;19.044;2024-01-30T00:48:02;32.10;;;16.77;;
33760;SDS011;20084;47.912;19.044;2024-01-30T00:50:29;31.58;;;16.15;;
33760;SDS011;20084;47.912;19.044;2024-01-30T00:52:54;31.02;;;16.50;;
33760;SDS011;20084;47.912;19.044;2024-01-30T00:55:20;27.48;;;15.70;;
33760;SDS011;20084;47.912;19.044;2024-01-30T00:57:46;29.52;;;16.25;;
33760;SDS011;20084;47.912;19.044;2024-01-30T01:00:12;27.85;;;15.68;;
33760;SDS011;20084;47.912;19.044;2024-01-30T01:02:40;30.05;;;16.83;;
33760;SDS011;20084;47.912;19.044;2024-01-30T01:05:06;29.65;;;15.98;;
33760;SDS011;20084;47.912;19.044;2024-01-30T01:07:32;26.13;;;15.82;;
33760;SDS011;20084;47.912;19.044;2024-01-30T01:09:57;26.63;;;14.93;;
33760;SDS011;20084;47.912;19.044;2024-01-30T01:12:23;27.67;;;16.83;;
33760;SDS011;20084;47.912;19.044;2024-01-30T01:14:48;27.23;;;17.10;;
33760;SDS011;20084;47.912;19.044;2024-01-30T01:17:14;30.92;;;16.70;;
33760;SDS011;20084;47.912;19.044;2024-01-30T01:19:40;27.63;;;16.90;;
33760;SDS011;20084;47.912;19.044;2024-01-30T01:22:05;26.00;;;15.27;;
33760;SDS011;20084;47.912;19.044;2024-01-30T01:24:31;30.73;;;17.38;;
33760;SDS011;20084;47.912;19.044;2024-01-30T01:26:58;27.88;;;16.45;;
33760;SDS011;20084;47.912;19.044;2024-01-30T01:29:23;28.70;;;16.42;;
33760;SDS011;20084;47.912;19.044;2024-01-30T01:31:54;30.20;;;16.70;;
33760;SDS011;20084;47.912;19.044;2024-01-30T01:34:20;24.35;;;15.40;;
33760;SDS011;20084;47.912;19.044;2024-01-30T01:36:46;21.10;;;13.65;;
33760;SDS011;20084;47.912;19.044;2024-01-30T01:39:12;22.55;;;13.15;;
33760;SDS011;20084;47.912;19.044;2024-01-30T01:41:37;20.67;;;13.13;;
33760;SDS011;20084;47.912;19.044;2024-01-30T01:44:03;22.45;;;13.10;;
33760;SDS011;20084;47.912;19.044;2024-01-30T01:46:30;22.15;;;13.07;;
33760;SDS011;20084;47.912;19.044;2024-01-30T01:48:58;22.48;;;12.20;;
33760;SDS011;20084;47.912;19.044;2024-01-30T01:51:25;19.33;;;11.52;;
33760;SDS011;20084;47.912;19.044;2024-01-30T01:53:53;18.83;;;11.20;;
33760;SDS011;20084;47.912;19.044;2024-01-30T01:56:20;20.15;;;11.60;;
33760;SDS011;20084;47.912;19.044;2024-01-30T01:58:46;18.65;;;11.00;;
33760;SDS011;20084;47.912;19.044;2024-01-30T02:01:14;17.73;;;10.98;;
33760;SDS011;20084;47.912;19.044;2024-01-30T02:03:44;19.80;;;11.05;;
33760;SDS011;20084;47.912;19.044;2024-01-30T02:06:11;17.60;;;11.20;;
33760;SDS011;20084;47.912;19.044;2024-01-30T02:08:41;19.02;;;11.57;;
33760;SDS011;20084;47.912;19.044;2024-01-30T02:11:07;20.88;;;11.93;;
33760;SDS011;20084;47.912;19.044;2024-01-30T02:13:33;20.77;;;11.95;;
33760;SDS011;20084;47.912;19.044;2024-01-30T02:15:59;22.92;;;11.00;;
33760;SDS011;20084;47.912;19.044;2024-01-30T02:18:26;22.20;;;12.48;;
33760;SDS011;20084;47.912;19.044;2024-01-30T02:20:52;19.00;;;11.63;;
33760;SDS011;20084;47.912;19.044;2024-01-30T02:23:19;18.00;;;11.70;;
33760;SDS011;20084;47.912;19.044;2024-01-30T02:25:45;17.85;;;11.00;;
33760;SDS011;20084;47.912;19.044;2024-01-30T02:28:11;19.80;;;11.43;;
33760;SDS011;20084;47.912;19.044;2024-01-30T02:30:37;19.00;;;11.23;;
33760;SDS011;20084;47.912;19.044;2024-01-30T02:33:09;20.77;;;11.65;;
33760;SDS011;20084;47.912;19.044;2024-01-30T02:35:35;17.50;;;10.07;;
33760;SDS011;20084;47.912;19.044;2024-01-30T02:38:01;20.40;;;11.43;;
33760;SDS011;20084;47.912;19.044;2024-01-30T02:40:27;16.77;;;10.98;;
33760;SDS011;20084;47.912;19.044;2024-01-30T02:42:52;20.60;;;11.48;;
33760;SDS011;20084;47.912;19.044;2024-01-30T02:45:18;21.35;;;12.05;;
33760;SDS011;20084;47.912;19.044;2024-01-30T02:47:44;17.63;;;11.65;;
33760;SDS011;20084;47.912;19.044;2024-01-30T02:50:10;20.75;;;11.70;;
33760;SDS011;20084;47.912;19.044;2024-01-30T02:52:36;20.38;;;11.25;;
33760;SDS011;20084;47.912;19.044;2024-01-30T02:55:02;22.42;;;11.32;;
33760;SDS011;20084;47.912;19.044;2024-01-30T02:57:28;15.65;;;9.70;;
33760;SDS011;20084;47.912;19.044;2024-01-30T02:59:54;17.67;;;9.48;;
33760;SDS011;20084;47.912;19.044;2024-01-30T03:02:20;18.13;;;10.40;;
33760;SDS011;20084;47.912;19.044;2024-01-30T03:04:45;16.98;;;9.95;;
33760;SDS011;20084;47.912;19.044;2024-01-30T03:07:11;19.77;;;10.00;;
33760;SDS011;20084;47.912;19.044;2024-01-30T03:09:38;18.40;;;10.38;;
33760;SDS011;20084;47.912;19.044;2024-01-30T03:12:03;16.52;;;10.27;;
33760;SDS011;20084;47.912;19.044;2024-01-30T03:14:30;16.85;;;10.30;;
33760;SDS011;20084;47.912;19.044;2024-01-30T03:16:57;20.25;;;10.95;;
33760;SDS011;20084;47.912;19.044;2024-01-30T03:19:22;20.80;;;10.75;;
33760;SDS011;20084;47.912;19.044;2024-01-30T03:21:48;19.48;;;11.32;;
33760;SDS011;20084;47.912;19.044;2024-01-30T03:24:14;17.55;;;11.13;;
33760;SDS011;20084;47.912;19.044;2024-01-30T03:26:39;22.52;;;12.02;;
33760;SDS011;20084;47.912;19.044;2024-01-30T03:29:05;20.65;;;11.63;;
33760;SDS011;20084;47.912;19.044;2024-01-30T03:31:30;21.58;;;12.85;;
33760;SDS011;20084;47.912;19.044;2024-01-30T03:33:56;24.10;;;14.40;;
33760;SDS011;20084;47.912;19.044;2024-01-30T03:36:21;34.50;;;19.25;;
33760;SDS011;20084;47.912;19.044;2024-01-30T03:38:47;38.30;;;19.92;;
33760;SDS011;20084;47.912;19.044;2024-01-30T03:41:13;37.65;;;20.48;;
33760;SDS011;20084;47.912;19.044;2024-01-30T03:43:38;42.60;;;21.70;;
33760;SDS011;20084;47.912;19.044;2024-01-30T03:46:04;42.20;;;22.27;;
33760;SDS011;20084;47.912;19.044;2024-01-30T03:48:29;38.03;;;20.42;;
33760;SDS011;20084;47.912;19.044;2024-01-30T03:50:55;25.55;;;14.80;;
33760;SDS011;20084;47.912;19.044;2024-01-30T03:53:21;21.00;;;11.90;;
33760;SDS011;20084;47.912;19.044;2024-01-30T03:55:47;17.92;;;10.95;;
33760;SDS011;20084;47.912;19.044;2024-01-30T03:58:12;20.40;;;10.93;;
33760;SDS011;20084;47.912;19.044;2024-01-30T04:00:38;15.63;;;10.20;;
33760;SDS011;20084;47.912;19.044;2024-01-30T04:03:04;18.67;;;10.52;;
33760;SDS011;20084;47.912;19.044;2024-01-30T04:05:30;28.60;;;14.88;;
33760;SDS011;20084;47.912;19.044;2024-01-30T04:07:55;32.25;;;16.25;;
33760;SDS011;20084;47.912;19.044;2024-01-30T04:10:21;27.38;;;15.32;;
33760;SDS011;20084;47.912;19.044;2024-01-30T04:12:46;26.42;;;15.35;;
33760;SDS011;20084;47.912;19.044;2024-01-30T04:15:12;37.58;;;19.63;;
33760;SDS011;20084;47.912;19.044;2024-01-30T04:17:38;42.72;;;19.60;;
33760;SDS011;20084;47.912;19.044;2024-01-30T04:20:05;37.72;;;20.27;;
33760;SDS011;20084;47.912;19.044;2024-01-30T04:22:31;12.80;;;8.50;;
33760;SDS011;20084;47.912;19.044;2024-01-30T04:24:57;14.07;;;8.57;;
33760;SDS011;20084;47.912;19.044;2024-01-30T04:27:22;26.48;;;14.48;;
33760;SDS011;20084;47.912;19.044;2024-01-30T04:29:48;37.00;;;18.00;;
33760;SDS011;20084;47.912;19.044;2024-01-30T04:32:14;20.00;;;11.40;;
33760;SDS011;20084;47.912;19.044;2024-01-30T04:34:39;12.05;;;7.80;;
33760;SDS011;20084;47.912;19.044;2024-01-30T04:37:05;13.88;;;8.25;;
33760;SDS011;20084;47.912;19.044;2024-01-30T04:39:32;19.48;;;10.15;;
33760;SDS011;20084;47.912;19.044;2024-01-30T04:41:58;15.40;;;8.10;;
33760;SDS011;20084;47.912;19.044;2024-01-30T04:44:24;14.68;;;8.55;;
33760;SDS011;20084;47.912;19.044;2024-01-30T04:46:50;23.92;;;12.75;;
33760;SDS011;20084;47.912;19.044;2024-01-30T04:49:15;21.63;;;11.73;;
33760;SDS011;20084;47.912;19.044;2024-01-30T04:51:41;22.35;;;11.68;;
33760;SDS011;20084;47.912;19.044;2024-01-30T04:54:06;19.63;;;9.90;;
33760;SDS011;20084;47.912;19.044;2024-01-30T04:56:32;18.08;;;10.88;;
33760;SDS011;20084;47.912;19.044;2024-01-30T04:58:58;19.70;;;10.23;;
33760;SDS011;20084;47.912;19.044;2024-01-30T05:01:24;17.23;;;10.10;;
33760;SDS011;20084;47.912;19.044;2024-01-30T05:03:49;17.48;;;10.10;;
33760;SDS011;20084;47.912;19.044;2024-01-30T05:06:23;16.67;;;9.82;;
33760;SDS011;20084;47.912;19.044;2024-01-30T05:08:52;16.10;;;9.35;;
33760;SDS011;20084;47.912;19.044;2024-01-30T05:11:18;13.90;;;8.25;;
33760;SDS011;20084;47.912;19.044;2024-01-30T05:13:44;12.50;;;7.82;;
33760;SDS011;20084;47.912;19.044;2024-01-30T05:16:09;14.07;;;7.25;;
33760;SDS011;20084;47.912;19.044;2024-01-30T05:18:35;13.70;;;8.13;;
33760;SDS011;20084;47.912;19.044;2024-01-30T05:21:01;14.82;;;7.95;;
33760;SDS011;20084;47.912;19.044;2024-01-30T05:23:27;14.60;;;7.85;;
33760;SDS011;20084;47.912;19.044;2024-01-30T05:25:53;14.07;;;8.30;;
33760;SDS011;20084;47.912;19.044;2024-01-30T05:28:19;16.13;;;9.57;;
33760;SDS011;20084;47.912;19.044;2024-01-30T05:30:44;13.48;;;7.88;;
33760;SDS011;20084;47.912;19.044;2024-01-30T05:33:10;12.60;;;8.45;;
33760;SDS011;20084;47.912;19.044;2024-01-30T05:35:37;12.05;;;7.78;;
33760;SDS011;20084;47.912;19.044;2024-01-30T05:38:02;14.00;;;7.72;;
33760;SDS011;20084;47.912;19.044;2024-01-30T05:40:29;14.25;;;7.40;;
33760;SDS011;20084;47.912;19.044;2024-01-30T05:42:55;15.85;;;9.07;;
33760;SDS011;20084;47.912;19.044;2024-01-30T05:45:21;13.13;;;8.60;;
33760;SDS011;20084;47.912;19.044;2024-01-30T05:47:48;10.95;;;7.20;;
33760;SDS011;20084;47.912;19.044;2024-01-30T05:50:13;14.63;;;7.38;;
33760;SDS011;20084;47.912;19.044;2024-01-30T05:52:40;11.50;;;7.25;;
33760;SDS011;20084;47.912;19.044;2024-01-30T05:55:05;10.70;;;7.15;;
33760;SDS011;20084;47.912;19.044;2024-01-30T05:57:31;10.40;;;6.57;;
33760;SDS011;20084;47.912;19.044;2024-01-30T05:59:57;11.85;;;6.95;;
33760;SDS011;20084;47.912;19.044;2024-01-30T06:02:23;12.30;;;7.38;;
33760;SDS011;20084;47.912;19.044;2024-01-30T06:04:48;12.65;;;7.22;;
33760;SDS011;20084;47.912;19.044;2024-01-30T06:07:14;12.88;;;7.80;;
33760;SDS011;20084;47.912;19.044;2024-01-30T06:09:40;15.13;;;8.88;;
33760;SDS011;20084;47.912;19.044;2024-01-30T06:12:06;16.35;;;8.75;;
33760;SDS011;20084;47.912;19.044;2024-01-30T06:14:32;14.02;;;8.73;;
33760;SDS011;20084;47.912;19.044;2024-01-30T06:16:58;12.07;;;7.53;;
33760;SDS011;20084;47.912;19.044;2024-01-30T06:19:24;13.60;;;7.85;;
33760;SDS011;20084;47.912;19.044;2024-01-30T06:21:50;13.43;;;7.90;;
33760;SDS011;20084;47.912;19.044;2024-01-30T06:24:15;13.57;;;7.50;;
33760;SDS011;20084;47.912;19.044;2024-01-30T06:26:41;14.38;;;8.40;;
33760;SDS011;20084;47.912;19.044;2024-01-30T06:29:06;31.33;;;16.58;;
33760;SDS011;20084;47.912;19.044;2024-01-30T06:31:32;25.50;;;15.02;;
33760;SDS011;20084;47.912;19.044;2024-01-30T06:33:58;49.72;;;27.75;;
33760;SDS011;20084;47.912;19.044;2024-01-30T06:36:24;39.55;;;23.50;;
33760;SDS011;20084;47.912;19.044;2024-01-30T06:38:49;49.28;;;29.20;;
33760;SDS011;20084;47.912;19.044;2024-01-30T06:41:15;70.28;;;39.25;;
33760;SDS011;20084;47.912;19.044;2024-01-30T06:43:40;67.03;;;38.08;;
33760;SDS011;20084;47.912;19.044;2024-01-30T06:46:06;72.05;;;42.25;;
33760;SDS011;20084;47.912;19.044;2024-01-30T06:48:32;65.70;;;40.80;;
33760;SDS011;20084;47.912;19.044;2024-01-30T06:50:57;35.13;;;22.38;;
33760;SDS011;20084;47.912;19.044;2024-01-30T06:53:23;27.80;;;19.23;;
33760;SDS011;20084;47.912;19.044;2024-01-30T06:55:49;53.38;;;34.05;;
33760;SDS011;20084;47.912;19.044;2024-01-30T06:58:17;50.95;;;32.85;;
33760;SDS011;20084;47.912;19.044;2024-01-30T07:00:42;54.97;;;32.53;;
33760;SDS011;20084;47.912;19.044;2024-01-30T07:03:08;37.53;;;23.90;;
33760;SDS011;20084;47.912;19.044;2024-01-30T07:05:33;19.38;;;11.65;;
33760;SDS011;20084;47.912;19.044;2024-01-30T07:07:59;26.95;;;15.70;;
33760;SDS011;20084;47.912;19.044;2024-01-30T07:10:25;18.70;;;12.45;;
33760;SDS011;20084;47.912;19.044;2024-01-30T07:12:50;16.08;;;9.35;;
33760;SDS011;20084;47.912;19.044;2024-01-30T07:15:16;18.15;;;8.93;;
33760;SDS011;20084;47.912;19.044;2024-01-30T07:17:44;17.27;;;8.20;;
33760;SDS011;20084;47.912;19.044;2024-01-30T07:20:11;17.00;;;8.38;;
33760;SDS011;20084;47.912;19.044;2024-01-30T07:22:36;18.85;;;10.63;;
33760;SDS011;20084;47.912;19.044;2024-01-30T07:25:02;22.67;;;14.30;;
33760;SDS011;20084;47.912;19.044;2024-01-30T07:27:28;28.17;;;16.55;;
33760;SDS011;20084;47.912;19.044;2024-01-30T07:29:54;25.63;;;15.40;;
33760;SDS011;20084;47.912;19.044;2024-01-30T07:32:19;17.92;;;11.70;;
33760;SDS011;20084;47.912;19.044;2024-01-30T07:34:45;19.45;;;12.30;;
33760;SDS011;20084;47.912;19.044;2024-01-30T07:37:10;19.80;;;12.05;;
33760;SDS011;20084;47.912;19.044;2024-01-30T07:39:38;28.27;;;15.43;;
33760;SDS011;20084;47.912;19.044;2024-01-30T07:42:03;18.85;;;13.00;;
33760;SDS011;20084;47.912;19.044;2024-01-30T07:44:29;22.35;;;12.05;;
33760;SDS011;20084;47.912;19.044;2024-01-30T07:46:55;22.98;;;12.15;;
33760;SDS011;20084;47.912;19.044;2024-01-30T07:49:20;31.25;;;14.27;;
33760;SDS011;20084;47.912;19.044;2024-01-30T07:51:46;23.83;;;13.88;;
33760;SDS011;20084;47.912;19.044;2024-01-30T07:54:11;28.90;;;17.15;;
33760;SDS011;20084;47.912;19.044;2024-01-30T07:56:37;30.05;;;17.90;;
33760;SDS011;20084;47.912;19.044;2024-01-30T07:59:03;35.90;;;21.10;;
33760;SDS011;20084;47.912;19.044;2024-01-30T08:01:29;36.65;;;22.77;;
33760;SDS011;20084;47.912;19.044;2024-01-30T08:03:54;33.70;;;22.67;;
33760;SDS011;20084;47.912;19.044;2024-01-30T08:06:20;49.10;;;23.55;;
33760;SDS011;20084;47.912;19.044;2024-01-30T08:08:45;74.60;;;25.42;;
33760;SDS011;20084;47.912;19.044;2024-01-30T08:11:11;34.03;;;23.42;;
33760;SDS011;20084;47.912;19.044;2024-01-30T08:13:37;43.17;;;25.08;;
33760;SDS011;20084;47.912;19.044;2024-01-30T08:16:03;49.20;;;32.38;;
33760;SDS011;20084;47.912;19.044;2024-01-30T08:18:29;49.05;;;31.00;;
33760;SDS011;20084;47.912;19.044;2024-01-30T08:20:54;43.25;;;29.67;;
33760;SDS011;20084;47.912;19.044;2024-01-30T08:23:20;45.97;;;25.90;;
33760;SDS011;20084;47.912;19.044;2024-01-30T08:25:45;51.63;;;24.23;;
33760;SDS011;20084;47.912;19.044;2024-01-30T08:28:11;36.35;;;23.05;;
33760;SDS011;20084;47.912;19.044;2024-01-30T08:30:37;29.25;;;18.63;;
33760;SDS011;20084;47.912;19.044;2024-01-30T08:33:04;21.20;;;13.88;;
33760;SDS011;20084;47.912;19.044;2024-01-30T08:35:29;17.15;;;12.07;;
33760;SDS011;20084;47.912;19.044;2024-01-30T08:37:58;16.30;;;11.55;;
33760;SDS011;20084;47.912;19.044;2024-01-30T08:40:24;27.90;;;11.93;;
33760;SDS011;20084;47.912;19.044;2024-01-30T08:42:49;14.32;;;10.85;;
33760;SDS011;20084;47.912;19.044;2024-01-30T08:45:15;21.90;;;14.25;;
33760;SDS011;20084;47.912;19.044;2024-01-30T08:47:41;17.67;;;11.93;;
33760;SDS011;20084;47.912;19.044;2024-01-30T08:50:07;16.83;;;12.23;;
33760;SDS011;20084;47.912;19.044;2024-01-30T08:52:32;17.48;;;12.13;;
33760;SDS011;20084;47.912;19.044;2024-01-30T08:54:59;19.77;;;12.63;;
33760;SDS011;20084;47.912;19.044;2024-01-30T08:57:25;23.75;;;16.00;;
33760;SDS011;20084;47.912;19.044;2024-01-30T08:59:53;21.48;;;14.77;;
33760;SDS011;20084;47.912;19.044;2024-01-30T09:02:19;24.13;;;16.02;;
33760;SDS011;20084;47.912;19.044;2024-01-30T09:04:45;39.25;;;24.15;;
33760;SDS011;20084;47.912;19.044;2024-01-30T09:07:11;31.17;;;20.13;;
33760;SDS011;20084;47.912;19.044;2024-01-30T09:09:38;25.27;;;16.23;;
33760;SDS011;20084;47.912;19.044;2024-01-30T09:12:05;22.35;;;14.18;;
33760;SDS011;20084;47.912;19.044;2024-01-30T09:14:34;25.95;;;16.77;;
33760;SDS011;20084;47.912;19.044;2024-01-30T09:17:00;21.42;;;15.25;;
33760;SDS011;20084;47.912;19.044;2024-01-30T09:19:26;20.20;;;14.52;;
33760;SDS011;20084;47.912;19.044;2024-01-30T09:21:51;20.80;;;13.32;;
33760;SDS011;20084;47.912;19.044;2024-01-30T09:24:17;16.35;;;12.00;;
33760;SDS011;20084;47.912;19.044;2024-01-30T09:26:43;14.77;;;10.68;;
33760;SDS011;20084;47.912;19.044;2024-01-30T09:29:08;16.25;;;10.40;;
33760;SDS011;20084;47.912;19.044;2024-01-30T09:31:34;16.50;;;10.90;;
33760;SDS011;20084;47.912;19.044;2024-01-30T09:33:59;16.40;;;10.73;;
33760;SDS011;20084;47.912;19.044;2024-01-30T09:36:25;14.27;;;9.27;;
33760;SDS011;20084;47.912;19.044;2024-01-30T09:38:50;15.10;;;9.95;;
33760;SDS011;20084;47.912;19.044;2024-01-30T09:41:16;15.07;;;10.38;;
33760;SDS011;20084;47.912;19.044;2024-01-30T09:43:46;16.83;;;11.88;;
33760;SDS011;20084;47.912;19.044;2024-01-30T09:46:14;17.73;;;12.27;;
33760;SDS011;20084;47.912;19.044;2024-01-30T09:48:41;20.05;;;13.90;;
33760;SDS011;20084;47.912;19.044;2024-01-30T09:51:08;17.50;;;12.70;;
33760;SDS011;20084;47.912;19.044;2024-01-30T09:53:35;18.50;;;12.20;;
33760;SDS011;20084;47.912;19.044;2024-01-30T09:56:02;18.33;;;12.93;;
33760;SDS011;20084;47.912;19.044;2024-01-30T09:58:28;18.00;;;12.30;;
33760;SDS011;20084;47.912;19.044;2024-01-30T10:00:53;17.08;;;11.45;;
33760;SDS011;20084;47.912;19.044;2024-01-30T10:03:19;15.77;;;10.95;;
33760;SDS011;20084;47.912;19.044;2024-01-30T10:05:49;17.15;;;12.13;;
33760;SDS011;20084;47.912;19.044;2024-01-30T10:08:17;19.90;;;14.60;;
33760;SDS011;20084;47.912;19.044;2024-01-30T10:10:46;16.83;;;10.30;;
33760;SDS011;20084;47.912;19.044;2024-01-30T10:13:13;11.35;;;7.97;;
33760;SDS011;20084;47.912;19.044;2024-01-30T10:15:38;16.88;;;12.95;;
33760;SDS011;20084;47.912;19.044;2024-01-30T10:18:05;11.55;;;8.23;;
33760;SDS011;20084;47.912;19.044;2024-01-30T10:20:31;15.50;;;11.40;;
33760;SDS011;20084;47.912;19.044;2024-01-30T10:22:57;16.20;;;10.27;;
33760;SDS011;20084;47.912;19.044;2024-01-30T10:25:25;12.85;;;8.70;;
33760;SDS011;20084;47.912;19.044;2024-01-30T10:27:54;13.05;;;9.27;;
33760;SDS011;20084;47.912;19.044;2024-01-30T10:32:49;13.90;;;9.00;;
33760;SDS011;20084;47.912;19.044;2024-01-30T10:35:16;12.73;;;8.18;;
33760;SDS011;20084;47.912;19.044;2024-01-30T10:37:48;13.07;;;8.30;;
33760;SDS011;20084;47.912;19.044;2024-01-30T10:40:14;11.73;;;7.50;;
33760;SDS011;20084;47.912;19.044;2024-01-30T10:42:44;12.00;;;8.70;;
33760;SDS011;20084;47.912;19.044;2024-01-30T10:45:14;10.98;;;8.18;;
33760;SDS011;20084;47.912;19.044;2024-01-30T10:47:45;14.63;;;9.05;;
33760;SDS011;20084;47.912;19.044;2024-01-30T10:50:15;9.65;;;6.47;;
33760;SDS011;20084;47.912;19.044;2024-01-30T10:52:41;17.33;;;7.25;;
33760;SDS011;20084;47.912;19.044;2024-01-30T10:55:07;10.38;;;6.18;;
33760;SDS011;20084;47.912;19.044;2024-01-30T10:57:36;11.15;;;6.47;;
33760;SDS011;20084;47.912;19.044;2024-01-30T11:00:10;9.38;;;6.63;;
33760;SDS011;20084;47.912;19.044;2024-01-30T11:02:44;10.13;;;6.68;;
33760;SDS011;20084;47.912;19.044;2024-01-30T11:05:12;12.77;;;9.15;;
33760;SDS011;20084;47.912;19.044;2024-01-30T11:07:40;6.32;;;5.07;;
33760;SDS011;20084;47.912;19.044;2024-01-30T11:10:06;6.47;;;5.13;;
33760;SDS011;20084;47.912;19.044;2024-01-30T11:12:37;7.88;;;5.97;;
33760;SDS011;20084;47.912;19.044;2024-01-30T11:15:09;8.57;;;6.00;;
33760;SDS011;20084;47.912;19.044;2024-01-30T11:17:54;10.07;;;6.47;;
33760;SDS011;20084;47.912;19.044;2024-01-30T11:20:20;9.27;;;6.85;;
33760;SDS011;20084;47.912;19.044;2024-01-30T11:22:53;8.95;;;6.82;;
33760;SDS011;20084;47.912;19.044;2024-01-30T11:25:21;20.77;;;10.60;;
33760;SDS011;20084;47.912;19.044;2024-01-30T11:27:49;11.63;;;7.22;;
33760;SDS011;20084;47.912;19.044;2024-01-30T11:30:26;13.90;;;8.63;;
33760;SDS011;20084;47.912;19.044;2024-01-30T11:35:30;13.65;;;8.60;;
33760;SDS011;20084;47.912;19.044;2024-01-30T11:38:01;11.68;;;8.02;;
33760;SDS011;20084;47.912;19.044;2024-01-30T11:40:30;11.20;;;7.28;;
33760;SDS011;20084;47.912;19.044;2024-01-30T11:42:58;12.45;;;7.57;;
33760;SDS011;20084;47.912;19.044;2024-01-30T11:45:26;9.85;;;6.88;;
33760;SDS011;20084;47.912;19.044;2024-01-30T11:47:55;8.82;;;6.35;;
33760;SDS011;20084;47.912;19.044;2024-01-30T11:50:21;10.18;;;7.13;;
33760;SDS011;20084;47.912;19.044;2024-01-30T11:52:47;10.63;;;7.80;;
33760;SDS011;20084;47.912;19.044;2024-01-30T11:55:13;8.50;;;6.95;;
33760;SDS011;20084;47.912;19.044;2024-01-30T11:57:40;9.43;;;6.88;;
33760;SDS011;20084;47.912;19.044;2024-01-30T12:00:06;9.43;;;6.32;;
33760;SDS011;20084;47.912;19.044;2024-01-30T12:02:39;9.05;;;6.55;;
33760;SDS011;20084;47.912;19.044;2024-01-30T12:05:05;24.92;;;14.63;;
33760;SDS011;20084;47.912;19.044;2024-01-30T12:07:32;13.93;;;10.45;;
33760;SDS011;20084;47.912;19.044;2024-01-30T12:10:01;10.82;;;5.78;;
33760;SDS011;20084;47.912;19.044;2024-01-30T12:12:27;9.70;;;6.85;;
33760;SDS011;20084;47.912;19.044;2024-01-30T12:14:54;11.27;;;7.90;;
33760;SDS011;20084;47.912;19.044;2024-01-30T12:17:38;18.90;;;12.57;;
33760;SDS011;20084;47.912;19.044;2024-01-30T12:22:40;10.25;;;7.13;;
33760;SDS011;20084;47.912;19.044;2024-01-30T12:25:10;9.20;;;7.03;;
33760;SDS011;20084;47.912;19.044;2024-01-30T12:27:37;12.05;;;7.03;;
33760;SDS011;20084;47.912;19.044;2024-01-30T12:30:07;11.63;;;7.60;;
33760;SDS011;20084;47.912;19.044;2024-01-30T12:32:40;10.70;;;7.85;;
33760;SDS011;20084;47.912;19.044;2024-01-30T12:35:09;8.45;;;6.65;;
33760;SDS011;20084;47.912;19.044;2024-01-30T12:37:45;11.85;;;8.65;;
33760;SDS011;20084;47.912;19.044;2024-01-30T12:40:12;10.10;;;7.38;;
33760;SDS011;20084;47.912;19.044;2024-01-30T12:42:39;14.82;;;7.65;;
33760;SDS011;20084;47.912;19.044;2024-01-30T12:45:07;9.70;;;6.85;;
33760;SDS011;20084;47.912;19.044;2024-01-30T12:47:33;9.25;;;7.10;;
33760;SDS011;20084;47.912;19.044;2024-01-30T12:49:59;9.68;;;6.40;;
33760;SDS011;20084;47.912;19.044;2024-01-30T12:52:25;10.50;;;7.10;;
33760;SDS011;20084;47.912;19.044;2024-01-30T12:54:50;8.60;;;6.70;;
33760;SDS011;20084;47.912;19.044;2024-01-30T12:57:17;9.23;;;7.00;;
33760;SDS011;20084;47.912;19.044;2024-01-30T12:59:46;12.00;;;8.43;;
33760;SDS011;20084;47.912;19.044;2024-01-30T13:02:12;10.88;;;7.70;;
33760;SDS011;20084;47.912;19.044;2024-01-30T13:04:38;11.75;;;8.13;;
33760;SDS011;20084;47.912;19.044;2024-01-30T13:07:04;10.10;;;7.38;;
33760;SDS011;20084;47.912;19.044;2024-01-30T13:09:30;12.30;;;8.38;;
33760;SDS011;20084;47.912;19.044;2024-01-30T13:11:56;11.30;;;8.63;;
33760;SDS011;20084;47.912;19.044;2024-01-30T13:14:23;16.50;;;10.98;;
33760;SDS011;20084;47.912;19.044;2024-01-30T13:16:50;16.25;;;11.65;;
33760;SDS011;20084;47.912;19.044;2024-01-30T13:19:15;13.38;;;10.05;;
33760;SDS011;20084;47.912;19.044;2024-01-30T13:21:41;11.70;;;7.75;;
33760;SDS011;20084;47.912;19.044;2024-01-30T13:24:07;14.43;;;7.63;;
33760;SDS011;20084;47.912;19.044;2024-01-30T13:26:34;10.68;;;8.40;;
33760;SDS011;20084;47.912;19.044;2024-01-30T13:28:59;13.93;;;7.53;;
33760;SDS011;20084;47.912;19.044;2024-01-30T13:31:25;10.52;;;7.75;;
33760;SDS011;20084;47.912;19.044;2024-01-30T13:33:52;13.20;;;8.52;;
33760;SDS011;20084;47.912;19.044;2024-01-30T13:36:18;10.93;;;8.02;;
33760;SDS011;20084;47.912;19.044;2024-01-30T13:38:44;10.93;;;8.18;;
33760;SDS011;20084;47.912;19.044;2024-01-30T13:41:09;10.57;;;8.43;;
33760;SDS011;20084;47.912;19.044;2024-01-30T13:43:35;15.52;;;10.52;;
33760;SDS011;20084;47.912;19.044;2024-01-30T13:46:01;29.48;;;20.95;;
33760;SDS011;20084;47.912;19.044;2024-01-30T13:48:28;17.58;;;12.55;;
33760;SDS011;20084;47.912;19.044;2024-01-30T13:50:54;14.85;;;10.02;;
33760;SDS011;20084;47.912;19.044;2024-01-30T13:53:20;27.60;;;17.52;;
33760;SDS011;20084;47.912;19.044;2024-01-30T13:55:46;28.45;;;17.27;;
33760;SDS011;20084;47.912;19.044;2024-01-30T13:58:12;13.05;;;8.43;;
33760;SDS011;20084;47.912;19.044;2024-01-30T14:00:38;33.90;;;20.67;;
33760;SDS011;20084;47.912;19.044;2024-01-30T14:03:03;30.48;;;18.23;;
33760;SDS011;20084;47.912;19.044;2024-01-30T14:05:29;35.45;;;23.27;;
33760;SDS011;20084;47.912;19.044;2024-01-30T14:07:55;18.30;;;12.38;;
33760;SDS011;20084;47.912;19.044;2024-01-30T14:10:22;31.95;;;22.05;;
33760;SDS011;20084;47.912;19.044;2024-01-30T14:12:48;12.40;;;9.95;;
33760;SDS011;20084;47.912;19.044;2024-01-30T14:15:14;21.92;;;15.95;;
33760;SDS011;20084;47.912;19.044;2024-01-30T14:17:40;25.23;;;17.50;;